Time;durP1;ratioP1;P1;durP2;ratioP2;P2;SDS_P1;SDS_P2;PMS_P1;PMS_P2;Temp;Humidity;BMP_temperature;BMP_pressure;BME280_temperature;BME280_humidity;BME280_pressure;Samples;Min_cycle;Max_cycle;Signal;HPM_P1;HPM_P2
2021/11/11 00:00:22;;;;;;;21.13;11.67;;;3.80;90.50;;;4.22;65.97;98234.94;4948327;28;20062;-46
2021/11/11 00:02:53;;;;;;;21.00;12.67;;;3.80;91.00;;;4.22;65.81;98235.75;4948631;29;20047;-47
2021/11/11 00:05:23;;;;;;;20.87;13.20;;;3.80;91.00;;;4.25;66.22;98229.44;4948038;29;20053;-47
2021/11/11 00:07:51;;;;;;;20.73;11.37;;;3.80;91.10;;;4.26;66.20;98223.22;4947841;28;20063;-47
2021/11/11 00:10:20;;;;;;;18.70;11.67;;;3.90;91.00;;;4.26;66.20;98215.31;4947077;28;20063;-48
2021/11/11 00:12:49;;;;;;;20.80;12.20;;;3.90;90.80;;;4.24;65.31;98225.13;4948614;28;20404;-46
2021/11/11 00:15:18;;;;;;;18.17;11.17;;;3.80;90.50;;;4.22;66.02;98230.50;4947726;29;20253;-46
2021/11/11 00:17:47;;;;;;;18.63;11.77;;;3.80;91.00;;;4.23;66.11;98231.34;4947757;29;20043;-46
2021/11/11 00:20:22;;;;;;;22.77;13.00;;;3.90;91.30;;;4.24;65.82;98228.59;4947521;28;20059;-46
2021/11/11 00:22:51;;;;;;;20.90;11.97;;;3.80;91.10;;;4.23;65.93;98221.66;4946536;28;20329;-47
2021/11/11 00:25:22;;;;;;;19.43;11.43;;;3.80;90.90;;;4.24;65.58;98219.84;4947342;28;20055;-48
2021/11/11 00:27:50;;;;;;;20.27;11.80;;;3.80;91.20;;;4.24;66.11;98218.03;4946243;29;20055;-46
2021/11/11 00:30:20;;;;;;;26.70;14.80;;;3.80;90.80;;;4.23;65.80;98220.81;4947604;29;20057;-48
2021/11/11 00:32:50;;;;;;;20.60;11.60;;;3.80;91.20;;;4.25;66.12;98216.28;4947947;28;20380;-46
2021/11/11 00:35:25;;;;;;;19.73;13.13;;;3.80;91.60;;;4.27;65.78;98220.47;4961904;28;20051;-49
2021/11/11 00:37:57;;;;;;;21.23;12.40;;;3.90;91.80;;;4.27;66.17;98212.56;4946724;29;20069;-47
2021/11/11 00:40:28;;;;;;;21.60;12.33;;;3.90;91.70;;;4.27;65.97;98209.94;4947523;29;20246;-46
2021/11/11 00:42:59;;;;;;;18.97;11.90;;;3.90;91.70;;;4.26;66.30;98208.22;4947685;28;20107;-46
2021/11/11 00:45:28;;;;;;;22.97;12.70;;;3.90;91.50;;;4.28;66.33;98211.59;4947121;29;20361;-48
2021/11/11 00:47:57;;;;;;;21.17;12.43;;;3.90;91.40;;;4.30;66.43;98206.22;4947963;28;20053;-46
2021/11/11 00:50:30;;;;;;;19.63;11.87;;;3.90;91.10;;;4.29;66.03;98207.19;4947037;29;20047;-48
2021/11/11 00:52:58;;;;;;;21.13;13.10;;;3.90;90.80;;;4.24;66.44;98204.88;4947780;28;20062;-48
2021/11/11 00:55:27;;;;;;;18.77;11.83;;;3.80;91.00;;;4.22;66.11;98201.50;4978615;28;20081;-47
2021/11/11 00:58:04;;;;;;;20.63;12.97;;;3.80;91.00;;;4.17;65.88;98198.38;4945773;28;20081;-49
2021/11/11 01:00:36;;;;;;;20.13;12.27;;;3.70;91.20;;;4.17;66.26;98200.13;4947143;28;20058;-46
2021/11/11 01:03:08;;;;;;;21.57;12.33;;;3.70;91.90;;;4.18;65.98;98197.41;4978664;28;20059;-48
2021/11/11 01:05:36;;;;;;;19.77;12.77;;;3.80;92.00;;;4.19;66.34;98192.97;4946543;28;20043;-46
2021/11/11 01:08:05;;;;;;;23.80;12.00;;;3.80;92.00;;;4.18;66.37;98191.28;4952429;29;20251;-45
2021/11/11 01:10:34;;;;;;;18.17;12.40;;;3.80;91.70;;;4.18;66.26;98189.50;4950959;29;20078;-46
2021/11/11 01:13:03;;;;;;;20.97;12.40;;;3.80;91.60;;;4.19;66.07;98190.31;4950155;29;20052;-47
2021/11/11 01:15:32;;;;;;;19.17;12.47;;;3.80;91.60;;;4.20;66.13;98192.03;4949529;29;20059;-46
2021/11/11 01:18:04;;;;;;;22.53;12.90;;;3.80;91.50;;;4.21;66.21;98197.19;4951775;28;20063;-48
2021/11/11 01:20:32;;;;;;;21.50;13.33;;;3.90;91.80;;;4.26;66.34;98194.22;4982630;28;20242;-46
2021/11/11 01:23:00;;;;;;;22.10;13.93;;;3.90;91.90;;;4.26;66.84;98192.41;4950285;28;20044;-46
2021/11/11 01:25:32;;;;;;;20.87;13.00;;;4.00;92.00;;;4.29;66.69;98201.94;4951507;28;20051;-47
2021/11/11 01:28:02;;;;;;;26.08;13.23;;;3.90;92.00;;;4.32;66.62;98210.47;4966509;28;20073;-46
2021/11/11 01:30:35;;;;;;;21.10;12.80;;;4.00;92.20;;;4.33;66.63;98198.13;4981593;28;20069;-46
2021/11/11 01:33:09;;;;;;;17.80;12.77;;;4.00;92.40;;;4.31;66.21;98205.28;4967425;28;20418;-47
2021/11/11 01:35:38;;;;;;;18.00;11.80;;;3.90;92.00;;;4.31;66.31;98195.59;4949012;29;20061;-48
2021/11/11 01:38:09;;;;;;;19.10;12.53;;;4.00;92.40;;;4.31;67.06;98198.22;4949922;28;20369;-47
2021/11/11 01:40:39;;;;;;;24.00;14.27;;;4.00;92.30;;;4.32;66.66;98185.88;4950166;28;20477;-47
2021/11/11 01:43:07;;;;;;;21.43;13.37;;;4.00;92.40;;;4.32;66.36;98188.50;4966390;28;20062;-47
2021/11/11 01:45:40;;;;;;;21.30;11.87;;;4.00;92.40;;;4.34;66.44;98178.69;4934315;28;20059;-46
2021/11/11 01:48:17;;;;;;;24.77;12.27;;;4.00;92.30;;;4.33;66.63;98175.22;4981229;28;20055;-48
2021/11/11 01:50:46;;;;;;;18.93;12.70;;;4.00;92.00;;;4.33;66.56;98174.41;4948875;29;20077;-47
2021/11/11 01:53:15;;;;;;;22.73;12.90;;;3.90;91.80;;;4.30;66.41;98177.25;4948213;28;20265;-46
2021/11/11 01:55:46;;;;;;;24.07;13.10;;;3.90;91.90;;;4.28;66.54;98185.25;4949233;29;20073;-46
2021/11/11 01:58:17;;;;;;;23.30;13.83;;;3.90;92.30;;;4.23;66.42;98173.38;4965404;28;20057;-47
2021/11/11 02:00:55;;;;;;;24.37;15.53;;;3.80;93.70;;;4.23;67.35;98170.75;4948406;28;20063;-49
2021/11/11 02:03:33;;;;;;;18.13;11.87;;;3.90;94.50;;;4.28;67.60;98177.34;4949908;28;20061;-46
2021/11/11 02:06:06;;;;;;;28.47;15.13;;;4.00;94.40;;;4.30;67.27;98172.81;4963131;28;20467;-46
2021/11/11 02:08:55;;;;;;;24.53;13.77;;;4.00;94.50;;;4.32;66.96;98168.28;4947894;28;20063;-49
2021/11/11 02:11:33;;;;;;;23.90;13.60;;;4.00;94.50;;;4.36;67.39;98165.41;4947664;28;20369;-46
2021/11/11 02:14:03;;;;;;;21.93;12.27;;;4.00;94.30;;;4.38;66.70;98169.66;4965788;28;20258;-46
2021/11/11 02:16:36;;;;;;;26.43;14.87;;;4.10;94.00;;;4.41;67.36;98166.78;4965956;28;20073;-48
2021/11/11 02:19:08;;;;;;;25.13;14.90;;;4.10;94.00;;;4.43;67.49;98164.88;4964720;28;20299;-46
2021/11/11 02:21:43;;;;;;;23.07;13.37;;;4.10;94.00;;;4.46;67.51;98166.44;4948298;29;20053;-47
2021/11/11 02:24:11;;;;;;;22.97;13.77;;;4.20;94.10;;;4.48;67.12;98161.91;4948590;28;20059;-51
2021/11/11 02:26:51;;;;;;;27.53;14.13;;;4.20;93.60;;;4.47;67.10;98158.41;4964493;28;20057;-48
2021/11/11 02:29:29;;;;;;;19.53;12.67;;;4.10;93.60;;;4.48;67.02;98154.00;4948438;28;20057;-47
2021/11/11 02:31:58;;;;;;;21.43;13.60;;;4.10;93.60;;;4.47;66.99;98157.59;4949588;28;20063;-51
2021/11/11 02:34:33;;;;;;;23.00;13.77;;;4.10;93.30;;;4.46;67.13;98143.56;4948666;28;20063;-46
2021/11/11 02:37:06;;;;;;;19.47;13.67;;;4.10;93.30;;;4.43;67.36;98142.94;4949036;28;20278;-46
2021/11/11 02:39:52;;;;;;;20.63;12.53;;;4.10;93.30;;;4.40;67.05;98148.41;4949335;28;20049;-49
2021/11/11 02:42:28;;;;;;;22.47;12.97;;;4.00;92.70;;;4.35;66.80;98151.41;4980884;28;20105;-49
2021/11/11 02:45:01;;;;;;;17.40;11.47;;;4.00;92.90;;;4.31;66.56;98156.03;4947463;28;20066;-46
2021/11/11 02:47:35;;;;;;;23.83;13.10;;;3.90;93.00;;;4.29;66.35;98157.13;4948091;28;20047;-46
2021/11/11 02:50:06;;;;;;;22.07;12.70;;;3.90;92.90;;;4.26;66.85;98154.69;4947062;28;20358;-47
2021/11/11 02:52:34;;;;;;;24.20;13.23;;;3.80;92.70;;;4.21;66.90;98149.75;4950568;28;20067;-47
2021/11/11 02:55:05;;;;;;;16.77;11.53;;;3.70;92.50;;;4.16;67.01;98151.03;4933274;29;20342;-48
2021/11/11 02:57:36;;;;;;;21.57;13.33;;;3.70;92.80;;;4.12;66.86;98150.41;4981856;28;20066;-50
2021/11/11 03:00:17;;;;;;;21.85;12.40;;;3.60;93.10;;;4.06;67.01;98153.47;4947320;28;20065;-47
2021/11/11 03:02:49;;;;;;;20.80;12.07;;;3.50;93.10;;;4.00;66.43;98151.28;4980728;28;20061;-47
2021/11/11 03:05:32;;;;;;;21.63;13.77;;;3.50;93.30;;;4.00;67.17;98151.28;4948277;28;20059;-47
2021/11/11 03:08:06;;;;;;;18.53;11.57;;;3.60;93.20;;;3.97;66.68;98152.31;4948073;28;20061;-49
2021/11/11 03:10:39;;;;;;;19.97;12.73;;;3.50;93.10;;;3.95;66.45;98151.56;4948680;28;20056;-47
2021/11/11 03:13:10;;;;;;;20.90;12.33;;;3.60;92.40;;;3.93;66.25;98146.41;4949250;29;20059;-48
2021/11/11 03:15:41;;;;;;;19.83;12.00;;;3.50;92.10;;;3.92;66.72;98150.00;4978840;28;20361;-46
2021/11/11 03:18:11;;;;;;;26.83;14.27;;;3.50;92.30;;;3.91;66.83;98150.94;4932923;29;20061;-47
2021/11/11 03:20:40;;;;;;;24.10;13.13;;;3.50;92.70;;;3.93;66.65;98154.31;4947288;28;20052;-47
2021/11/11 03:23:09;;;;;;;22.77;13.60;;;3.50;93.00;;;3.96;67.13;98153.28;4963565;28;20055;-46
2021/11/11 03:25:38;;;;;;;32.37;17.70;;;3.60;92.60;;;3.99;66.72;98155.69;4946922;28;20053;-50
2021/11/11 03:28:07;;;;;;;34.70;19.23;;;3.60;92.20;;;3.99;66.73;98160.94;4962961;28;20425;-47
2021/11/11 03:30:37;;;;;;;30.60;18.23;;;3.70;92.20;;;3.98;66.88;98151.38;4963376;28;20257;-46
2021/11/11 03:33:07;;;;;;;28.03;17.20;;;3.60;92.00;;;3.96;67.12;98153.28;4980905;28;20066;-47
2021/11/11 03:35:43;;;;;;;24.90;15.87;;;3.60;91.80;;;3.97;66.47;98156.75;4947676;28;20081;-46
2021/11/11 03:38:12;;;;;;;28.90;15.63;;;3.60;91.80;;;3.96;66.50;98161.19;4948214;28;20341;-49
2021/11/11 03:40:44;;;;;;;26.30;16.20;;;3.60;91.60;;;3.90;66.56;98161.59;4948036;28;20062;-47
2021/11/11 03:43:27;;;;;;;27.57;15.83;;;3.50;90.50;;;3.82;66.94;98154.25;4947531;28;20218;-48
2021/11/11 03:46:03;;;;;;;23.73;14.40;;;3.40;92.20;;;3.80;66.33;98158.78;4946473;29;20058;-48
2021/11/11 03:48:31;;;;;;;23.27;13.80;;;3.40;92.10;;;3.81;66.88;98154.34;4980570;28;20257;-47
2021/11/11 03:51:02;;;;;;;24.40;13.70;;;3.40;92.20;;;3.77;66.93;98164.25;4947305;28;20081;-47
2021/11/11 03:53:31;;;;;;;21.63;13.73;;;3.40;92.40;;;3.76;66.47;98162.53;4978449;28;20063;-46
2021/11/11 03:56:01;;;;;;;20.10;12.13;;;3.30;92.50;;;3.75;66.74;98164.34;4948621;28;20062;-48
2021/11/11 03:58:29;;;;;;;22.57;12.73;;;3.30;92.70;;;3.77;66.71;98164.25;4946708;28;20061;-47
2021/11/11 04:00:57;;;;;;;19.13;12.83;;;3.40;92.70;;;3.75;66.54;98171.41;4947951;29;20051;-46
2021/11/11 04:03:25;;;;;;;18.73;11.47;;;3.30;92.30;;;3.73;66.57;98181.19;4979776;28;20047;-49
2021/11/11 04:05:53;;;;;;;19.27;12.30;;;3.30;92.50;;;3.68;66.92;98175.41;4948562;29;20058;-46
2021/11/11 04:08:30;;;;;;;19.73;11.93;;;3.20;92.10;;;3.61;66.42;98175.00;4964411;28;20136;-47
2021/11/11 04:11:03;;;;;;;18.37;12.53;;;3.10;92.30;;;3.58;66.68;98179.63;4963037;28;20057;-50
2021/11/11 04:13:31;;;;;;;22.17;12.53;;;3.10;92.50;;;3.56;66.71;98192.88;4963163;28;20061;-48
2021/11/11 04:16:00;;;;;;;21.43;12.93;;;3.10;92.40;;;3.55;66.26;98185.94;4946708;28;20067;-47
2021/11/11 04:18:33;;;;;;;23.35;13.15;;;3.10;92.30;;;3.51;66.09;98184.47;4962766;28;20071;-49
2021/11/11 04:21:02;;;;;;;25.10;14.40;;;3.00;92.10;;;3.46;66.51;98181.28;4963477;28;20421;-50
2021/11/11 04:23:32;;;;;;;19.10;12.73;;;2.90;92.30;;;3.43;66.34;98187.63;4977797;28;20082;-48
2021/11/11 04:26:19;;;;;;;20.97;11.93;;;2.90;92.70;;;3.43;67.00;98190.25;4946136;28;20132;-47
2021/11/11 04:31:40;;;;;;;34.13;13.50;;;2.90;91.40;;;3.29;66.36;98180.63;4962467;28;20051;-46
2021/11/11 04:34:15;;;;;;;23.67;13.80;;;2.70;92.10;;;3.17;66.31;98188.50;4963532;28;20066;-46
2021/11/11 04:44:35;;;;;;;35.93;13.73;;;1.70;95.70;;;2.43;67.02;98193.25;4945972;28;20066;-47
2021/11/11 05:05:55;;;;;;;19.70;12.27;;;2.30;95.50;;;2.72;67.34;98189.59;4963629;28;20069;-47
2021/11/11 05:08:23;;;;;;;17.43;12.83;;;2.30;95.50;;;2.73;67.42;98191.31;4945834;29;20066;-46
2021/11/11 05:10:55;;;;;;;21.87;13.10;;;2.30;95.20;;;2.73;66.94;98196.56;4962011;28;20051;-47
2021/11/11 05:13:24;;;;;;;17.10;11.30;;;2.30;95.10;;;2.72;67.16;98197.50;4946034;28;20078;-46
2021/11/11 05:15:55;;;;;;;18.27;12.50;;;2.30;94.90;;;2.71;67.29;98198.41;4977890;28;20058;-49
2021/11/11 05:18:24;;;;;;;17.07;11.83;;;2.30;94.90;;;2.72;67.56;98199.28;4964295;28;20065;-46
2021/11/11 05:20:52;;;;;;;17.63;14.00;;;2.30;94.90;;;2.74;67.22;98200.03;4978854;28;20234;-48
2021/11/11 05:23:20;;;;;;;19.37;13.23;;;2.30;94.20;;;2.66;67.38;98189.19;4966303;28;20237;-47
2021/11/11 05:25:49;;;;;;;21.97;13.13;;;2.20;95.40;;;2.69;67.50;98191.59;4966323;28;20062;-46
2021/11/11 05:28:20;;;;;;;21.67;13.30;;;2.20;96.10;;;2.69;67.61;98186.31;4965408;28;20055;-47
2021/11/11 05:30:50;;;;;;;19.97;12.93;;;2.20;95.50;;;2.71;67.20;98184.44;4981608;28;20062;-49
2021/11/11 05:33:18;;;;;;;20.47;12.50;;;2.20;95.50;;;2.72;67.95;98191.41;4979902;28;20084;-46
2021/11/11 05:35:46;;;;;;;20.50;12.73;;;2.30;95.50;;;2.74;67.38;98184.25;4966070;28;20655;-47
2021/11/11 05:38:18;;;;;;;25.10;14.20;;;2.30;95.70;;;2.78;67.51;98183.13;4964931;28;20078;-46
2021/11/11 05:40:47;;;;;;;20.67;12.93;;;2.40;95.60;;;2.80;67.56;98180.38;4979200;28;20058;-46
2021/11/11 05:43:15;;;;;;;18.43;11.93;;;2.40;95.30;;;2.82;67.69;98194.28;4981388;28;20334;-46
2021/11/11 05:45:43;;;;;;;29.73;17.13;;;2.40;95.20;;;2.84;67.41;98189.75;4980392;28;20076;-50
2021/11/11 05:48:12;;;;;;;35.10;19.80;;;2.50;95.40;;;2.88;67.48;98196.50;4979777;28;20351;-46
2021/11/11 05:50:41;;;;;;;24.67;15.03;;;2.50;95.40;;;2.90;67.26;98194.63;4980419;28;20073;-48
2021/11/11 05:53:13;;;;;;;18.77;13.03;;;2.50;95.00;;;2.90;67.44;98199.88;4983628;28;20261;-48
2021/11/11 05:55:42;;;;;;;22.27;12.60;;;2.50;94.70;;;2.89;67.58;98201.69;4985907;28;20055;-48
2021/11/11 05:58:14;;;;;;;22.00;13.60;;;2.50;94.80;;;2.89;67.39;98192.91;4984621;28;20474;-47
2021/11/11 06:00:43;;;;;;;20.87;12.67;;;2.50;95.10;;;2.92;67.59;98193.56;4969232;28;20061;-49
2021/11/11 06:03:18;;;;;;;21.57;12.97;;;2.50;94.70;;;2.93;67.39;98199.69;4952324;28;20068;-51
2021/11/11 06:05:53;;;;;;;19.77;11.93;;;2.60;94.20;;;2.89;67.00;98201.69;4966188;28;20240;-48
2021/11/11 06:08:25;;;;;;;19.63;12.77;;;2.50;94.00;;;2.87;67.32;98193.03;4969321;28;20061;-47
2021/11/11 06:10:53;;;;;;;23.33;13.17;;;2.40;94.50;;;2.86;67.24;98193.97;4968862;28;20391;-46
2021/11/11 06:13:22;;;;;;;20.57;12.73;;;2.40;95.20;;;2.87;67.37;98197.44;4970149;28;20062;-48
2021/11/11 06:15:52;;;;;;;20.73;13.20;;;2.50;95.20;;;2.86;67.40;98196.59;4969372;28;20050;-51
2021/11/11 06:18:21;;;;;;;18.93;13.80;;;2.50;95.10;;;2.87;67.24;98203.56;4969470;28;20051;-51
2021/11/11 06:20:57;;;;;;;19.63;13.27;;;2.50;95.00;;;2.90;67.54;98208.59;4983351;28;20606;-50
2021/11/11 06:23:29;;;;;;;23.27;14.57;;;2.50;94.40;;;2.91;67.25;98218.19;4967056;28;20053;-47
2021/11/11 06:25:58;;;;;;;22.03;12.97;;;2.50;94.60;;;2.93;67.45;98216.31;4968797;28;20061;-49
2021/11/11 06:28:30;;;;;;;24.20;12.97;;;2.60;94.30;;;2.94;67.38;98222.41;4967953;28;20402;-47
2021/11/11 06:31:01;;;;;;;24.30;14.27;;;2.60;94.10;;;2.97;67.48;98219.59;4984121;28;20055;-47
2021/11/11 06:33:31;;;;;;;26.03;14.70;;;2.60;94.40;;;2.98;67.25;98217.78;4983242;28;20066;-51
2021/11/11 06:35:59;;;;;;;25.53;14.37;;;2.60;94.60;;;2.98;67.53;98213.38;4982987;28;20089;-47
2021/11/11 06:38:27;;;;;;;19.13;12.00;;;2.60;95.10;;;3.00;67.49;98219.38;4968601;28;20261;-51
2021/11/11 06:40:55;;;;;;;23.40;13.37;;;2.60;95.60;;;3.02;67.66;98227.16;4969443;28;20062;-48
2021/11/11 06:43:23;;;;;;;26.13;13.80;;;2.70;95.50;;;2.98;67.73;98221.25;4967007;28;20539;-50
2021/11/11 06:45:51;;;;;;;22.53;14.97;;;2.60;95.70;;;2.94;67.53;98225.03;4968261;28;20065;-50
2021/11/11 06:48:19;;;;;;;22.90;14.87;;;2.50;95.70;;;2.96;67.52;98226.63;4968039;28;20419;-50
2021/11/11 06:50:48;;;;;;;28.93;17.70;;;2.50;96.10;;;2.95;67.55;98230.22;4984446;28;20063;-51
2021/11/11 06:53:18;;;;;;;24.17;16.83;;;2.50;95.80;;;2.94;67.57;98238.19;4967926;28;20054;-46
2021/11/11 06:55:48;;;;;;;23.83;15.57;;;2.50;95.60;;;2.95;67.43;98237.25;4966764;28;20059;-47
2021/11/11 06:58:22;;;;;;;20.03;13.57;;;2.50;95.60;;;2.93;67.74;98237.34;4967232;28;20069;-52
2021/11/11 07:00:56;;;;;;;20.03;12.87;;;2.50;95.50;;;2.93;67.59;98231.25;4968206;28;20387;-50
2021/11/11 07:03:25;;;;;;;19.30;12.37;;;2.50;95.50;;;2.95;67.76;98234.63;4982276;28;20063;-46
2021/11/11 07:05:54;;;;;;;18.43;11.97;;;2.60;95.50;;;2.97;67.45;98230.13;4966169;28;20057;-48
2021/11/11 07:08:22;;;;;;;21.30;13.60;;;2.60;95.40;;;3.02;67.71;98235.91;4968093;28;20030;-49
2021/11/11 07:10:53;;;;;;;21.53;13.10;;;2.70;95.20;;;3.03;67.69;98234.97;4983771;28;20069;-47
2021/11/11 07:13:23;;;;;;;24.53;13.80;;;2.70;95.00;;;3.03;67.60;98239.41;4969663;28;20062;-48
2021/11/11 07:15:51;;;;;;;23.80;14.03;;;2.60;94.40;;;2.93;67.60;98239.97;4968224;28;20265;-48
2021/11/11 07:18:19;;;;;;;28.60;16.07;;;2.50;95.30;;;2.90;67.58;98247.22;4968949;28;20055;-48
2021/11/11 07:20:49;;;;;;;21.17;14.10;;;2.50;96.10;;;2.90;67.82;98245.44;4966317;28;20253;-47
2021/11/11 07:23:20;;;;;;;18.50;12.87;;;2.50;96.50;;;2.93;68.11;98253.13;4969790;28;20061;-47
2021/11/11 07:25:51;;;;;;;19.43;11.83;;;2.60;95.10;;;2.97;67.96;98264.31;4966049;28;20051;-46
2021/11/11 07:28:19;;;;;;;21.67;12.03;;;2.60;94.60;;;2.93;67.54;98262.81;4967851;28;20046;-47
2021/11/11 07:30:49;;;;;;;22.20;13.30;;;2.50;93.40;;;2.90;67.20;98269.09;4968786;28;20055;-46
2021/11/11 07:33:17;;;;;;;23.80;14.23;;;2.50;93.60;;;2.89;67.13;98269.19;4966558;28;20315;-45
2021/11/11 07:35:46;;;;;;;23.13;12.57;;;2.40;93.00;;;2.85;67.15;98267.69;4966594;28;20061;-45
2021/11/11 07:38:16;;;;;;;19.07;12.47;;;2.40;92.80;;;2.79;67.10;98282.06;4967809;28;20423;-46
2021/11/11 07:40:44;;;;;;;17.47;12.53;;;2.30;92.60;;;2.74;67.07;98282.38;4967605;28;20059;-46
2021/11/11 07:43:12;;;;;;;23.70;14.83;;;2.20;93.20;;;2.68;66.95;98281.94;4966044;28;20074;-48
2021/11/11 07:45:43;;;;;;;22.87;13.70;;;2.20;94.30;;;2.68;67.32;98274.06;4967536;28;20444;-48
2021/11/11 07:48:11;;;;;;;18.43;13.23;;;2.20;94.80;;;2.68;67.28;98285.41;4967405;28;20047;-47
2021/11/11 07:50:42;;;;;;;18.60;11.60;;;2.20;94.40;;;2.69;67.10;98284.44;4982094;28;20531;-48
2021/11/11 07:53:11;;;;;;;16.63;11.57;;;2.20;94.60;;;2.70;67.57;98280.88;4968498;28;20069;-52
2021/11/11 07:55:41;;;;;;;18.80;11.90;;;2.30;94.20;;;2.73;67.58;98287.72;4965995;28;20061;-50
2021/11/11 07:58:11;;;;;;;17.87;11.80;;;2.30;94.70;;;2.73;67.47;98291.22;4964658;28;20050;-47
2021/11/11 08:00:40;;;;;;;23.00;12.87;;;2.30;95.00;;;2.76;67.82;98290.19;4968206;28;20057;-48
2021/11/11 08:03:09;;;;;;;34.07;12.33;;;2.40;95.60;;;2.73;68.05;98288.59;4968911;28;20055;-46
2021/11/11 08:05:37;;;;;;;29.93;13.10;;;2.30;95.90;;;2.55;68.17;98287.94;4965512;28;20059;-46
2021/11/11 08:08:07;;;;;;;30.23;14.33;;;2.00;97.80;;;2.49;68.56;98290.94;4966911;28;20062;-50
2021/11/11 08:10:37;;;;;;;26.47;14.00;;;2.00;97.90;;;2.60;68.25;98297.31;4967607;28;20242;-52
2021/11/11 08:13:06;;;;;;;26.60;15.77;;;2.10;98.30;;;2.56;68.59;98296.69;4966403;28;20054;-46
2021/11/11 08:15:34;;;;;;;25.87;14.77;;;2.10;98.30;;;2.50;68.99;98295.28;4966485;28;20050;-48
2021/11/11 08:18:04;;;;;;;21.03;13.43;;;2.00;98.90;;;2.52;69.08;98300.41;4965727;28;20349;-51
2021/11/11 08:20:32;;;;;;;16.40;13.17;;;2.10;99.10;;;2.49;68.77;98292.75;4967455;28;20357;-48
2021/11/11 08:23:00;;;;;;;22.37;12.80;;;2.10;99.70;;;2.52;69.31;98295.16;4965798;28;20509;-48
2021/11/11 08:25:29;;;;;;;22.37;13.47;;;2.20;99.90;;;2.56;69.94;98296.69;4966137;28;20362;-49
2021/11/11 08:27:57;;;;;;;23.97;13.30;;;2.30;99.60;;;2.60;70.01;98303.44;4965365;28;20058;-50
2021/11/11 08:30:25;;;;;;;20.43;13.00;;;2.30;99.90;;;2.66;70.04;98310.09;4966218;28;20241;-48
2021/11/11 08:32:54;;;;;;;23.20;13.60;;;2.30;99.90;;;2.68;69.92;98302.97;4966323;28;20051;-47
2021/11/11 08:35:24;;;;;;;48.17;12.60;;;2.40;99.90;;;2.58;71.32;98304.47;4964726;28;20069;-48
2021/11/11 08:37:54;;;;;;;24.73;12.30;;;2.40;99.90;;;2.56;70.90;98308.03;4964533;28;20065;-48
2021/11/11 08:40:22;;;;;;;40.57;11.73;;;2.30;99.90;;;2.48;71.53;98314.69;4966691;28;20073;-48
2021/11/11 08:42:55;;;;;;;26.23;11.70;;;2.20;99.90;;;2.44;71.30;98313.19;4967016;28;20521;-46
2021/11/11 08:45:26;;;;;;;33.60;12.13;;;2.00;99.90;;;2.52;70.93;98314.44;4965518;28;20062;-46
2021/11/11 08:47:55;;;;;;;22.70;12.17;;;2.10;99.90;;;2.64;71.03;98315.47;4966313;28;20063;-50
2021/11/11 08:50:28;;;;;;;23.37;12.90;;;2.30;99.90;;;2.66;70.53;98312.75;4965723;28;20058;-47
2021/11/11 08:53:00;;;;;;;32.93;13.53;;;2.40;99.90;;;2.48;71.76;98312.94;4966676;28;20061;-47
2021/11/11 08:55:31;;;;;;;30.47;12.53;;;2.20;99.90;;;2.52;71.04;98305.69;4965467;28;20062;-49
2021/11/11 08:58:00;;;;;;;30.33;13.73;;;2.10;99.90;;;2.54;71.02;98316.97;4965496;28;20058;-48
2021/11/11 09:00:34;;;;;;;24.23;12.43;;;2.10;99.90;;;2.56;70.77;98321.19;4980015;28;20059;-47
2021/11/11 09:03:04;;;;;;;18.77;12.50;;;2.20;99.90;;;2.62;71.12;98319.97;4962940;28;20247;-47
2021/11/11 09:05:36;;;;;;;26.07;13.23;;;2.20;99.90;;;2.53;71.36;98326.63;4960633;28;20046;-46
2021/11/11 09:08:07;;;;;;;25.23;14.50;;;2.10;99.90;;;2.49;71.34;98329.53;4961163;28;20055;-47
2021/11/11 09:10:39;;;;;;;27.47;12.77;;;2.10;99.90;;;2.47;71.37;98332.25;4962074;28;20055;-47
2021/11/11 09:13:30;;;;;;;44.17;13.37;;;2.10;99.90;;;2.38;71.54;98334.59;4964981;28;20047;-47
2021/11/11 09:16:01;;;;;;;39.87;13.17;;;2.00;99.90;;;2.36;71.25;98337.31;4964137;28;20369;-48
2021/11/11 09:18:31;;;;;;;47.27;13.37;;;1.90;99.90;;;2.19;71.90;98333.09;4967502;28;20050;-47
2021/11/11 09:21:09;;;;;;;49.10;14.80;;;1.80;99.90;;;2.25;71.62;98331.84;4963270;29;20236;-49
2021/11/11 09:23:40;;;;;;;46.03;14.33;;;1.90;99.90;;;2.28;71.92;98332.53;4963928;28;20055;-48
2021/11/11 09:26:09;;;;;;;47.37;16.63;;;1.90;99.90;;;2.11;71.80;98332.69;4963480;28;20063;-47
2021/11/11 09:28:40;;;;;;;38.40;15.37;;;1.70;99.90;;;2.24;72.05;98330.19;4965825;29;20057;-46
2021/11/11 09:31:11;;;;;;;114.30;20.43;;;1.80;99.90;;;2.05;72.80;98322.56;4966985;29;20054;-47
2021/11/11 09:33:41;;;;;;;25.83;14.07;;;1.80;99.90;;;2.23;72.32;98331.97;4967606;28;20051;-47
2021/11/11 09:36:15;;;;;;;29.63;13.97;;;1.90;99.90;;;2.39;72.52;98336.31;4967208;28;20069;-50
2021/11/11 09:38:45;;;;;;;97.05;17.88;;;2.10;99.90;;;2.45;72.14;98336.75;4967946;28;20055;-47
2021/11/11 09:41:16;;;;;;;44.87;15.23;;;2.20;99.90;;;2.46;72.84;98341.09;4967112;28;20055;-49
2021/11/11 09:43:44;;;;;;;66.33;17.77;;;2.20;99.90;;;2.56;72.15;98344.84;4967174;28;20055;-50
2021/11/11 09:46:15;;;;;;;64.30;16.27;;;2.30;99.90;;;2.66;72.19;98350.38;4967353;28;20047;-48
2021/11/11 09:48:44;;;;;;;64.17;16.67;;;2.40;99.90;;;2.61;72.88;98348.97;4966957;29;20043;-48
2021/11/11 09:51:18;;;;;;;28.03;12.83;;;2.40;99.90;;;2.70;72.38;98351.88;4967088;28;20066;-49
2021/11/11 09:53:55;;;;;;;27.57;14.23;;;2.40;99.90;;;2.73;72.47;98356.09;4967022;29;20047;-47
2021/11/11 09:59:25;;;;;;;37.33;14.30;;;2.40;99.90;;;2.80;72.20;98344.28;4966879;29;20054;-49
2021/11/11 10:01:54;;;;;;;33.37;13.10;;;2.50;99.90;;;2.87;72.29;98348.22;4967048;28;20057;-49
2021/11/11 10:04:23;;;;;;;43.27;14.73;;;2.60;99.90;;;2.71;73.75;98332.53;4966700;29;20381;-48
2021/11/11 10:06:51;;;;;;;31.77;16.07;;;2.50;99.90;;;2.88;72.52;98336.75;4965971;29;20051;-48
2021/11/11 10:09:23;;;;;;;27.00;14.83;;;2.60;99.90;;;3.04;72.58;98333.97;4966307;28;20051;-47
2021/11/11 10:12:06;;;;;;;24.47;13.47;;;2.80;99.90;;;2.94;73.37;98333.72;4966504;28;20059;-48
2021/11/11 10:14:40;;;;;;;29.03;15.87;;;2.70;99.90;;;3.00;73.00;98337.75;4966191;29;20051;-47
2021/11/11 10:17:12;;;;;;;25.33;15.33;;;2.70;99.90;;;3.08;72.82;98329.38;4966798;28;20262;-46
2021/11/11 10:19:44;;;;;;;26.00;14.10;;;2.80;99.90;;;3.18;73.17;98330.50;4966641;29;20257;-49
2021/11/11 10:22:26;;;;;;;49.43;15.60;;;3.00;99.90;;;3.33;73.14;98342.66;4966608;29;20054;-47
2021/11/11 10:25:01;;;;;;;28.97;15.73;;;3.10;99.90;;;3.47;72.66;98349.69;4966803;28;20085;-49
2021/11/11 10:30:25;;;;;;;27.63;15.33;;;3.50;99.90;;;3.72;73.25;98342.78;4966683;29;20057;-48
2021/11/11 10:33:09;;;;;;;22.23;12.67;;;3.60;99.90;;;3.84;72.42;98344.63;4965987;28;20058;-47
2021/11/11 10:35:43;;;;;;;22.05;13.98;;;3.70;99.90;;;3.92;72.11;98342.31;4966659;28;20059;-47
2021/11/11 10:38:19;;;;;;;21.50;14.82;;;3.80;99.90;;;4.01;72.43;98335.56;4966168;28;20061;-49
2021/11/11 10:40:52;;;;;;;55.53;18.93;;;3.90;99.90;;;3.80;72.90;98335.25;4966282;28;20058;-46
2021/11/11 10:43:26;;;;;;;29.47;16.70;;;3.70;99.90;;;3.78;72.87;98334.50;4966564;28;20051;-44
2021/11/11 10:45:56;;;;;;;25.48;15.90;;;3.50;99.90;;;3.83;72.67;98336.81;4966304;29;20298;-45
2021/11/11 10:48:26;;;;;;;29.47;16.40;;;3.50;99.90;;;3.85;72.53;98333.13;4966044;28;20057;-45
2021/11/11 10:50:58;;;;;;;50.50;17.50;;;3.60;99.90;;;3.81;72.91;98336.91;4964896;28;20055;-45
2021/11/11 10:53:34;;;;;;;60.90;17.37;;;3.50;99.90;;;3.85;73.03;98334.94;4965758;28;20051;-48
2021/11/11 10:56:05;;;;;;;30.23;17.50;;;3.60;99.90;;;3.92;73.32;98331.78;4964178;29;20054;-45
2021/11/11 10:58:38;;;;;;;57.67;18.00;;;3.70;99.90;;;3.69;74.00;98346.47;4965069;29;20058;-47
2021/11/11 11:01:22;;;;;;;69.37;17.83;;;3.50;99.90;;;3.78;73.35;98345.03;4965746;29;20053;-45
2021/11/11 11:03:51;;;;;;;83.90;18.47;;;3.50;99.90;;;3.82;73.38;98346.53;4965940;28;20057;-46
2021/11/11 11:06:23;;;;;;;25.87;15.70;;;3.50;99.90;;;3.92;73.38;98347.59;4965585;29;20290;-47
2021/11/11 11:08:59;;;;;;;37.17;15.20;;;3.60;99.90;;;3.92;73.35;98350.22;4964414;28;20252;-46
2021/11/11 11:11:31;;;;;;;38.53;17.23;;;3.70;99.90;;;3.86;73.31;98348.00;4965142;29;20057;-47